Time;durP1;ratioP1;P1;durP2;ratioP2;P2;SDS_P1;SDS_P2;PMS_P1;PMS_P2;Temp;Humidity;BMP_temperature;BMP_pressure;BME280_temperature;BME280_humidity;BME280_pressure;Samples;Min_cycle;Max_cycle;Signal;HPM_P1;HPM_P2
2021/12/04 00:00:17;;;;;;;10.93;6.60;;;2.40;99.90;;;;;;5070808;28;20183;-78
2021/12/04 00:02:43;;;;;;;10.40;6.30;;;2.50;99.90;;;;;;5070699;28;20188;-79
2021/12/04 00:05:09;;;;;;;12.77;6.40;;;2.50;99.90;;;;;;5067935;28;20292;-79
2021/12/04 00:07:37;;;;;;;10.80;5.70;;;2.50;99.90;;;;;;5071141;28;20597;-78
2021/12/04 00:10:04;;;;;;;10.97;6.27;;;2.50;99.90;;;;;;5057253;28;20212;-78
2021/12/04 00:12:31;;;;;;;11.17;6.20;;;2.60;99.90;;;;;;5071031;28;20208;-78
2021/12/04 00:14:57;;;;;;;11.07;6.27;;;2.60;99.90;;;;;;5071912;28;20179;-76
2021/12/04 00:17:23;;;;;;;11.73;6.50;;;2.70;99.90;;;;;;5070891;28;20208;-74
2021/12/04 00:19:48;;;;;;;10.87;5.87;;;2.70;99.90;;;;;;5055025;28;20203;-79
2021/12/04 00:22:14;;;;;;;8.23;5.90;;;2.60;99.90;;;;;;5058189;28;20767;-80
2021/12/04 00:24:40;;;;;;;9.33;5.93;;;2.60;99.90;;;;;;5050467;28;20292;-80
2021/12/04 00:27:05;;;;;;;11.13;6.03;;;2.70;99.90;;;;;;5043451;28;20254;-78
2021/12/04 00:29:31;;;;;;;10.13;6.27;;;2.60;99.90;;;;;;5043090;28;20234;-78
2021/12/04 00:32:01;;;;;;;10.57;6.23;;;2.60;99.90;;;;;;5041741;28;20227;-77
2021/12/04 00:34:28;;;;;;;9.53;6.90;;;2.60;99.90;;;;;;5038391;28;20208;-77
2021/12/04 00:50:22;;;;;;;9.93;5.93;;;2.70;99.90;;;;;;5067780;28;20213;-78
2021/12/04 00:52:48;;;;;;;8.80;6.23;;;2.60;99.90;;;;;;5065269;28;20207;-78
2021/12/04 00:55:13;;;;;;;12.63;7.00;;;2.70;99.90;;;;;;5073097;28;20216;-79
2021/12/04 00:57:39;;;;;;;10.57;6.63;;;2.60;99.90;;;;;;5072972;28;20234;-78
2021/12/04 01:00:09;;;;;;;8.23;5.90;;;2.60;99.90;;;;;;5074918;28;20254;-78
2021/12/04 01:02:34;;;;;;;11.13;6.10;;;2.60;99.90;;;;;;5073364;28;20627;-79
2021/12/04 01:05:00;;;;;;;10.47;6.47;;;2.60;99.90;;;;;;5074589;28;20267;-78
2021/12/04 01:07:25;;;;;;;9.83;6.67;;;2.60;99.90;;;;;;5074226;28;20233;-79
2021/12/04 01:09:51;;;;;;;7.53;5.83;;;2.60;99.90;;;;;;5062515;28;20223;-79
2021/12/04 01:12:17;;;;;;;10.07;5.80;;;2.70;99.90;;;;;;5074691;28;20175;-79
2021/12/04 01:14:43;;;;;;;11.80;5.80;;;2.60;99.90;;;;;;5073972;28;20179;-77
2021/12/04 01:17:09;;;;;;;9.40;5.80;;;2.60;99.90;;;;;;5074365;28;20298;-79
2021/12/04 01:19:36;;;;;;;9.43;6.20;;;2.60;99.90;;;;;;5074507;28;20294;-79
2021/12/04 01:22:03;;;;;;;8.63;6.23;;;2.60;99.90;;;;;;5074332;28;20222;-78
2021/12/04 01:24:29;;;;;;;7.97;5.60;;;2.60;99.90;;;;;;5073796;28;20738;-78
2021/12/04 01:26:55;;;;;;;10.33;6.33;;;2.60;99.90;;;;;;5074371;28;20240;-78
2021/12/04 01:29:20;;;;;;;12.50;6.47;;;2.60;99.90;;;;;;5072557;28;20209;-78
2021/12/04 01:31:46;;;;;;;10.23;6.77;;;2.60;99.90;;;;;;5057587;28;20250;-79
2021/12/04 01:34:13;;;;;;;10.23;6.93;;;2.60;99.90;;;;;;5074590;28;20642;-80
2021/12/04 01:36:38;;;;;;;9.50;6.10;;;2.70;99.90;;;;;;5074275;28;20213;-78
2021/12/04 01:39:05;;;;;;;10.93;6.10;;;2.70;99.90;;;;;;5065053;28;20651;-78
2021/12/04 01:41:33;;;;;;;9.87;6.53;;;2.70;99.90;;;;;;5069744;28;20213;-79
2021/12/04 01:44:00;;;;;;;9.30;6.00;;;2.70;99.90;;;;;;5072458;28;20214;-78
2021/12/04 01:46:26;;;;;;;9.57;6.67;;;2.60;99.90;;;;;;5072205;28;20233;-79
2021/12/04 01:48:52;;;;;;;9.30;6.67;;;2.70;99.90;;;;;;5073402;28;20207;-79
2021/12/04 01:51:18;;;;;;;10.10;6.13;;;2.70;99.90;;;;;;5072118;28;20191;-78
2021/12/04 01:53:43;;;;;;;9.33;6.37;;;2.70;99.90;;;;;;5074180;28;20176;-80
2021/12/04 01:56:09;;;;;;;14.67;7.70;;;2.70;99.90;;;;;;5073654;28;20211;-79
2021/12/04 01:58:36;;;;;;;9.97;6.80;;;2.70;99.90;;;;;;5071665;28;20228;-80
2021/12/04 02:01:03;;;;;;;9.43;6.23;;;2.60;99.90;;;;;;5071133;28;20204;-78
2021/12/04 02:03:28;;;;;;;9.40;6.90;;;2.60;99.90;;;;;;5072340;28;20231;-79
2021/12/04 02:05:54;;;;;;;7.10;5.87;;;2.70;99.90;;;;;;5067738;28;20547;-79
2021/12/04 02:08:22;;;;;;;12.30;6.30;;;2.70;99.90;;;;;;5068769;28;20287;-81
2021/12/04 02:10:52;;;;;;;8.80;6.53;;;2.70;99.90;;;;;;5056484;28;20653;-81
2021/12/04 02:13:18;;;;;;;12.03;6.60;;;2.70;99.90;;;;;;5060719;28;20209;-79
2021/12/04 02:15:45;;;;;;;11.80;7.33;;;2.70;99.90;;;;;;5073077;28;20203;-78
2021/12/04 02:18:12;;;;;;;9.33;5.80;;;2.60;99.90;;;;;;5059300;28;20688;-79
2021/12/04 02:20:38;;;;;;;10.97;6.53;;;2.70;99.90;;;;;;5062597;28;20171;-79
2021/12/04 02:23:05;;;;;;;8.67;6.40;;;2.70;99.90;;;;;;5073244;28;20568;-79
2021/12/04 02:25:31;;;;;;;9.40;6.13;;;2.70;99.90;;;;;;5071806;28;20211;-80
2021/12/04 02:27:57;;;;;;;9.23;6.47;;;2.70;99.90;;;;;;5073017;28;20226;-78
2021/12/04 02:30:27;;;;;;;9.53;6.50;;;2.70;99.90;;;;;;5072863;28;20264;-78
2021/12/04 02:32:54;;;;;;;10.07;6.63;;;2.70;99.90;;;;;;5074769;28;20313;-79
2021/12/04 02:35:20;;;;;;;10.13;6.73;;;2.70;99.90;;;;;;5073865;28;20638;-81
2021/12/04 02:37:47;;;;;;;10.17;6.93;;;2.70;99.90;;;;;;5065870;28;20199;-81
2021/12/04 02:40:17;;;;;;;9.90;6.30;;;2.70;99.90;;;;;;5063275;28;20208;-80
2021/12/04 02:42:44;;;;;;;9.53;6.53;;;2.80;99.90;;;;;;5069799;28;20199;-80
2021/12/04 02:45:11;;;;;;;8.60;6.33;;;2.80;99.90;;;;;;5075926;28;20202;-81
2021/12/04 02:47:37;;;;;;;11.97;6.87;;;2.80;99.90;;;;;;5078514;28;20683;-80
2021/12/04 02:50:07;;;;;;;8.33;6.20;;;2.80;99.90;;;;;;5077711;28;20202;-82
2021/12/04 02:52:33;;;;;;;8.33;6.20;;;2.80;99.90;;;;;;5078555;28;20210;-80
2021/12/04 02:54:59;;;;;;;9.97;7.00;;;2.80;99.90;;;;;;5080721;28;20218;-84
2021/12/04 02:57:26;;;;;;;9.40;7.40;;;2.80;99.90;;;;;;5078144;28;20193;-81
2021/12/04 02:59:53;;;;;;;9.00;6.93;;;2.80;99.90;;;;;;5078020;28;20171;-80
2021/12/04 03:02:21;;;;;;;10.23;6.77;;;2.70;99.90;;;;;;5078242;28;20214;-81
2021/12/04 03:04:49;;;;;;;9.30;6.97;;;2.80;99.90;;;;;;5064876;28;20206;-80
2021/12/04 03:07:15;;;;;;;10.10;6.53;;;2.80;99.90;;;;;;5081768;28;20204;-80
2021/12/04 03:09:41;;;;;;;8.47;6.60;;;2.80;99.90;;;;;;5073023;28;20581;-80
2021/12/04 03:12:08;;;;;;;11.07;7.13;;;2.70;99.90;;;;;;5079636;28;20179;-80
2021/12/04 03:14:34;;;;;;;10.17;7.10;;;2.70;99.90;;;;;;5079183;28;20674;-81
2021/12/04 03:17:00;;;;;;;14.70;8.00;;;2.70;99.90;;;;;;5078319;28;20736;-80
2021/12/04 03:19:26;;;;;;;9.63;7.00;;;2.80;99.90;;;;;;5077019;28;20208;-81
2021/12/04 03:21:52;;;;;;;10.87;7.10;;;2.80;99.90;;;;;;5075876;28;20199;-80
2021/12/04 03:24:19;;;;;;;14.30;8.47;;;2.80;99.90;;;;;;5074825;28;20199;-80
2021/12/04 03:26:47;;;;;;;9.73;7.13;;;2.90;99.90;;;;;;5074502;28;20207;-80
2021/12/04 03:29:17;;;;;;;9.53;6.37;;;2.80;99.90;;;;;;5044187;28;20253;-80
2021/12/04 03:40:07;;;;;;;10.30;7.60;;;2.80;99.90;;;;;;5052917;28;20212;-78
2021/12/04 03:42:34;;;;;;;16.10;7.40;;;2.80;99.90;;;;;;5055150;28;20212;-80
2021/12/04 03:45:00;;;;;;;8.57;6.57;;;2.90;99.90;;;;;;5053248;28;20211;-79
2021/12/04 03:47:27;;;;;;;11.33;7.03;;;2.90;99.90;;;;;;5050968;28;20284;-79
2021/12/04 03:49:53;;;;;;;11.10;7.03;;;2.90;99.90;;;;;;5051192;28;20205;-79
2021/12/04 03:52:18;;;;;;;8.37;6.57;;;2.90;99.90;;;;;;5052247;28;20212;-78
2021/12/04 03:54:44;;;;;;;8.80;6.27;;;2.80;99.90;;;;;;5050704;28;20212;-79
2021/12/04 03:57:12;;;;;;;8.53;6.43;;;2.80;99.90;;;;;;5050914;28;20251;-78
2021/12/04 03:59:39;;;;;;;12.90;7.87;;;2.90;99.90;;;;;;5056485;28;20176;-79
2021/12/04 04:02:07;;;;;;;12.97;7.23;;;2.90;99.90;;;;;;5052077;28;20213;-79
2021/12/04 04:04:32;;;;;;;11.40;7.27;;;2.90;99.90;;;;;;5053776;28;20241;-79
2021/12/04 04:07:01;;;;;;;10.60;7.30;;;2.90;99.90;;;;;;5052958;28;20286;-79
2021/12/04 04:09:28;;;;;;;11.33;7.30;;;2.90;99.90;;;;;;5050851;28;20171;-78
2021/12/04 04:11:54;;;;;;;11.50;7.03;;;3.00;99.90;;;;;;5050901;28;20167;-79
2021/12/04 04:14:19;;;;;;;10.97;7.80;;;3.00;99.90;;;;;;5051724;28;20208;-79
2021/12/04 04:16:45;;;;;;;12.10;7.57;;;3.00;99.90;;;;;;5051436;28;20287;-79
2021/12/04 04:19:11;;;;;;;11.43;7.30;;;3.00;99.90;;;;;;5050902;28;20216;-79
2021/12/04 04:21:42;;;;;;;12.00;7.83;;;3.00;99.90;;;;;;5051246;28;20737;-79
2021/12/04 04:24:12;;;;;;;12.13;7.57;;;3.00;99.90;;;;;;5051967;28;20200;-78
2021/12/04 04:26:39;;;;;;;10.70;7.63;;;3.00;99.90;;;;;;5050251;28;20227;-80
2021/12/04 04:29:06;;;;;;;8.87;7.03;;;3.00;99.90;;;;;;5050922;28;20560;-80
2021/12/04 04:31:33;;;;;;;11.13;7.23;;;3.00;99.90;;;;;;5051452;28;20629;-79
2021/12/04 04:34:07;;;;;;;15.27;8.10;;;3.10;99.90;;;;;;5051592;28;20594;-79
2021/12/04 04:58:16;;;;;;;16.17;10.23;;;2.80;99.90;;;;;;5045920;28;20245;-81
2021/12/04 05:10:17;;;;;;;14.70;10.43;;;2.80;99.90;;;;;;5051916;28;20245;-79
2021/12/04 05:11:44;;;;;;;17.17;10.20;;;2.80;99.90;;;;;;4988912;28;20213;-78
2021/12/04 05:14:17;;;;;;;15.03;10.03;;;2.90;99.90;;;;;;5040030;28;20232;-79
2021/12/04 05:16:52;;;;;;;15.90;10.73;;;2.80;99.90;;;;;;5050570;28;20203;-78
2021/12/04 05:19:29;;;;;;;14.53;10.23;;;2.80;99.90;;;;;;5049107;28;20210;-79
2021/12/04 05:21:55;;;;;;;15.57;10.97;;;2.80;99.90;;;;;;5042573;28;20207;-79
2021/12/04 05:24:21;;;;;;;14.67;10.60;;;2.80;99.90;;;;;;5053077;28;20204;-79
2021/12/04 05:26:47;;;;;;;15.60;10.17;;;2.90;99.90;;;;;;5043208;28;20298;-78
2021/12/04 05:29:12;;;;;;;16.33;9.87;;;2.90;99.90;;;;;;5049597;28;20357;-79
2021/12/04 05:31:38;;;;;;;16.57;10.10;;;2.90;99.90;;;;;;5048944;28;20760;-78
2021/12/04 05:34:03;;;;;;;16.47;10.53;;;2.90;99.90;;;;;;5055082;28;20211;-79
2021/12/04 05:36:29;;;;;;;16.80;10.67;;;2.90;99.90;;;;;;5055128;28;20299;-78
2021/12/04 05:38:54;;;;;;;17.27;10.40;;;2.80;99.90;;;;;;5052107;28;20171;-79
2021/12/04 05:41:20;;;;;;;14.87;10.50;;;2.80;99.90;;;;;;5067753;28;20226;-79
2021/12/04 05:43:47;;;;;;;13.63;9.47;;;2.80;99.90;;;;;;5074584;28;20209;-79
2021/12/04 05:46:16;;;;;;;15.57;10.37;;;2.80;99.90;;;;;;5074657;28;20234;-79
2021/12/04 05:51:22;;;;;;;13.47;9.77;;;2.80;99.90;;;;;;5074420;28;20688;-79
2021/12/04 05:53:58;;;;;;;16.50;10.77;;;2.70;99.90;;;;;;5057800;28;20175;-79
2021/12/04 05:56:25;;;;;;;18.10;11.60;;;2.70;99.90;;;;;;5074351;28;20211;-79
2021/12/04 05:58:51;;;;;;;17.10;11.97;;;2.70;99.90;;;;;;5073049;28;20766;-79
2021/12/04 06:01:19;;;;;;;16.00;11.70;;;2.70;99.90;;;;;;5073367;28;20211;-78
2021/12/04 06:03:44;;;;;;;17.30;11.67;;;2.70;99.90;;;;;;5074962;28;20200;-79
2021/12/04 06:06:10;;;;;;;15.63;10.67;;;2.70;99.90;;;;;;5074831;28;20256;-78
2021/12/04 06:08:35;;;;;;;16.90;10.37;;;2.70;99.90;;;;;;5075998;28;20248;-80
2021/12/04 06:11:01;;;;;;;15.33;9.97;;;2.70;99.90;;;;;;5071980;28;20210;-79
2021/12/04 06:13:27;;;;;;;14.33;10.37;;;2.70;99.90;;;;;;5078009;28;20645;-79
2021/12/04 06:15:53;;;;;;;14.00;9.47;;;2.60;99.90;;;;;;5072430;28;20199;-79
2021/12/04 06:18:21;;;;;;;11.60;8.20;;;2.60;99.90;;;;;;5071930;28;20198;-78
2021/12/04 06:23:32;;;;;;;14.20;9.83;;;2.60;99.90;;;;;;5075370;28;20627;-77
2021/12/04 06:25:58;;;;;;;14.07;9.20;;;2.50;99.90;;;;;;5076751;28;20218;-79
2021/12/04 06:28:24;;;;;;;13.70;8.20;;;2.50;99.90;;;;;;5073237;28;20279;-78
2021/12/04 06:30:51;;;;;;;13.60;8.27;;;2.60;99.90;;;;;;5071095;28;20210;-78
2021/12/04 06:33:17;;;;;;;11.27;7.47;;;2.60;99.90;;;;;;5073293;28;20203;-80
2021/12/04 06:35:43;;;;;;;10.33;8.07;;;2.50;99.90;;;;;;5067387;28;20183;-79
2021/12/04 06:38:10;;;;;;;14.20;8.63;;;2.60;99.90;;;;;;5067492;28;20226;-79
2021/12/04 06:40:37;;;;;;;11.20;8.27;;;2.60;99.90;;;;;;5058878;28;20211;-79
2021/12/04 06:43:04;;;;;;;12.03;8.57;;;2.60;99.90;;;;;;5076077;28;20211;-78
2021/12/04 06:45:32;;;;;;;12.73;8.50;;;2.60;99.90;;;;;;5071430;28;20708;-78
2021/12/04 06:51:05;;;;;;;13.43;9.17;;;2.60;99.90;;;;;;5035017;28;20215;-79
2021/12/04 06:53:58;;;;;;;11.50;8.33;;;2.60;99.90;;;;;;5060679;28;20214;-78
2021/12/04 06:56:18;;;;;;;13.87;8.70;;;2.60;99.90;;;;;;5066822;28;20221;-79
2021/12/04 06:58:44;;;;;;;11.60;8.20;;;2.60;99.90;;;;;;5072363;28;20291;-79
2021/12/04 07:01:12;;;;;;;13.60;8.30;;;2.60;99.90;;;;;;5067095;28;20294;-79
2021/12/04 07:03:39;;;;;;;16.67;9.17;;;2.70;99.90;;;;;;5069410;28;20212;-78
2021/12/04 07:06:05;;;;;;;14.33;8.53;;;2.60;99.90;;;;;;5072830;28;20171;-79
2021/12/04 07:08:31;;;;;;;11.97;8.70;;;2.70;99.90;;;;;;5061841;28;20223;-79
2021/12/04 07:10:57;;;;;;;12.73;8.30;;;2.70;99.90;;;;;;5067956;28;20305;-81
2021/12/04 07:13:23;;;;;;;14.83;8.77;;;2.70;99.90;;;;;;5061993;28;20217;-80
2021/12/04 07:15:58;;;;;;;12.80;7.87;;;2.70;99.90;;;;;;5067018;28;20225;-79
2021/12/04 07:18:23;;;;;;;13.03;8.13;;;2.70;99.90;;;;;;5068593;28;20182;-79
2021/12/04 07:20:49;;;;;;;10.47;7.33;;;2.70;99.90;;;;;;5063269;28;20209;-78
2021/12/04 07:23:14;;;;;;;11.77;8.37;;;2.80;99.90;;;;;;5049699;28;20215;-78
2021/12/04 07:25:39;;;;;;;10.03;7.47;;;2.70;99.90;;;;;;5071266;28;20253;-78
2021/12/04 07:28:05;;;;;;;12.80;8.00;;;2.70;99.90;;;;;;5071104;28;20218;-78
2021/12/04 07:30:30;;;;;;;13.93;8.40;;;2.70;99.90;;;;;;5056935;28;20685;-76
2021/12/04 07:32:56;;;;;;;15.17;8.57;;;2.80;99.90;;;;;;5060350;28;20186;-76
2021/12/04 07:35:21;;;;;;;10.27;7.73;;;2.80;99.90;;;;;;5052846;28;20577;-76
2021/12/04 07:37:47;;;;;;;12.80;7.63;;;2.80;99.90;;;;;;5048836;28;20605;-76
2021/12/04 07:40:13;;;;;;;12.13;7.83;;;2.90;99.90;;;;;;5045557;28;20791;-76
2021/12/04 07:42:38;;;;;;;12.10;7.83;;;2.80;99.90;;;;;;5047749;28;20200;-76
2021/12/04 07:45:05;;;;;;;10.83;7.17;;;2.80;99.90;;;;;;5046277;28;20248;-76
2021/12/04 07:47:31;;;;;;;10.13;6.93;;;2.80;99.90;;;;;;5047453;28;20196;-76
2021/12/04 07:49:57;;;;;;;12.23;7.83;;;2.90;99.90;;;;;;5046803;28;20210;-75
2021/12/04 07:52:25;;;;;;;11.30;7.03;;;2.80;99.90;;;;;;5048268;28;20204;-76
2021/12/04 07:54:51;;;;;;;11.87;6.87;;;2.90;99.90;;;;;;5048232;28;20196;-77
2021/12/04 07:57:17;;;;;;;10.23;7.10;;;3.00;99.90;;;;;;5046842;28;20196;-76
2021/12/04 07:59:44;;;;;;;12.70;8.20;;;2.90;99.90;;;;;;5063802;28;20229;-76
2021/12/04 08:02:12;;;;;;;14.87;8.47;;;2.90;99.90;;;;;;5064118;28;20630;-77
2021/12/04 08:04:38;;;;;;;10.73;6.93;;;3.00;99.90;;;;;;5069847;28;20223;-77
2021/12/04 08:07:10;;;;;;;12.63;7.93;;;3.00;99.90;;;;;;5070311;28;20625;-76
2021/12/04 08:09:38;;;;;;;12.00;7.17;;;3.10;99.90;;;;;;5064999;28;20210;-78
2021/12/04 08:12:10;;;;;;;13.33;6.57;;;3.10;99.90;;;;;;5071964;28;20184;-77
2021/12/04 08:14:37;;;;;;;11.57;6.87;;;3.20;99.90;;;;;;5059260;28;20208;-79
2021/12/04 08:17:03;;;;;;;11.37;7.23;;;3.20;99.90;;;;;;5076657;28;20221;-80
2021/12/04 08:19:32;;;;;;;10.93;6.63;;;3.20;99.90;;;;;;5070417;28;20257;-79
2021/12/04 08:22:05;;;;;;;10.73;6.53;;;3.10;99.90;;;;;;5063319;28;20285;-78
2021/12/04 08:24:31;;;;;;;10.37;6.40;;;3.10;99.90;;;;;;5070668;28;20214;-78
2021/12/04 08:26:56;;;;;;;8.67;5.97;;;3.20;99.90;;;;;;5072112;28;20219;-79
2021/12/04 08:29:22;;;;;;;9.10;5.93;;;3.20;99.90;;;;;;5071598;28;20203;-78
2021/12/04 08:31:50;;;;;;;11.27;5.53;;;3.20;99.90;;;;;;5071124;28;20614;-79
2021/12/04 08:34:15;;;;;;;13.13;5.97;;;3.20;99.90;;;;;;5070747;28;20268;-78
2021/12/04 08:36:41;;;;;;;9.77;5.83;;;3.10;99.90;;;;;;5082558;28;20223;-79
2021/12/04 08:39:07;;;;;;;10.43;6.03;;;3.20;99.90;;;;;;5085081;28;20190;-79
2021/12/04 08:41:33;;;;;;;8.17;5.13;;;3.20;99.90;;;;;;5068887;28;20585;-78
2021/12/04 08:44:00;;;;;;;9.33;5.63;;;3.10;99.90;;;;;;5070722;28;20303;-79
2021/12/04 08:46:25;;;;;;;10.10;5.87;;;3.20;99.90;;;;;;5070149;28;20303;-79
2021/12/04 08:48:54;;;;;;;8.57;5.33;;;3.20;99.90;;;;;;5069489;28;20251;-78
2021/12/04 08:51:21;;;;;;;12.03;6.03;;;3.20;99.90;;;;;;5070863;28;20189;-78
2021/12/04 08:53:55;;;;;;;7.27;5.43;;;3.30;99.90;;;;;;5071814;28;20728;-79
2021/12/04 08:56:20;;;;;;;9.73;6.00;;;3.40;99.90;;;;;;5071237;28;20221;-79
2021/12/04 08:58:46;;;;;;;8.93;5.70;;;3.40;99.90;;;;;;5075156;28;20205;-78
2021/12/04 09:01:24;;;;;;;10.17;6.23;;;3.30;99.90;;;;;;5073860;28;20770;-79
2021/12/04 09:04:04;;;;;;;10.63;6.63;;;3.30;99.90;;;;;;5080786;28;20203;-79
2021/12/04 09:06:30;;;;;;;7.80;6.00;;;3.20;99.90;;;;;;5075097;28;20240;-78
2021/12/04 09:08:56;;;;;;;9.53;6.70;;;3.30;99.90;;;;;;5073874;28;20259;-79
2021/12/04 09:11:27;;;;;;;8.90;6.47;;;3.40;99.90;;;;;;5069313;28;20274;-76
2021/12/04 09:13:53;;;;;;;9.50;5.87;;;3.40;99.90;;;;;;5074495;28;20243;-80
2021/12/04 09:16:21;;;;;;;10.43;7.37;;;3.40;99.90;;;;;;5074918;28;20214;-79
2021/12/04 09:18:55;;;;;;;14.43;7.43;;;3.40;99.90;;;;;;5057227;28;20680;-80
2021/12/04 09:21:21;;;;;;;9.20;6.83;;;3.40;99.90;;;;;;5073647;28;20182;-78
2021/12/04 09:23:51;;;;;;;9.00;6.80;;;3.50;99.90;;;;;;5073919;28;20248;-79
2021/12/04 09:27:31;;;;;;;11.17;8.13;;;3.50;99.90;;;;;;5073564;28;20704;-79
2021/12/04 09:34:35;;;;;;;14.93;9.53;;;3.60;99.90;;;;;;5075201;28;20242;-79
2021/12/04 10:02:04;;;;;;;13.13;8.30;;;3.40;99.90;;;;;;5074181;28;20297;-79
2021/12/04 10:04:54;;;;;;;11.57;8.33;;;3.30;99.90;;;;;;5073816;28;20215;-79
2021/12/04 10:13:29;;;;;;;14.50;9.47;;;3.20;99.90;;;;;;5061430;28;20213;-78
2021/12/04 10:16:30;;;;;;;14.10;9.10;;;3.10;99.90;;;;;;5072888;28;20203;-79
2021/12/04 10:19:22;;;;;;;13.70;9.17;;;3.20;99.90;;;;;;5072336;28;20203;-79
2021/12/04 10:22:06;;;;;;;13.53;9.13;;;3.20;99.90;;;;;;5074080;28;20222;-79
2021/12/04 10:24:51;;;;;;;13.53;9.33;;;3.30;99.90;;;;;;5072389;28;20234;-79
2021/12/04 10:33:13;;;;;;;15.03;10.17;;;3.20;99.90;;;;;;5062468;28;20290;-79
2021/12/04 10:35:39;;;;;;;15.23;9.77;;;3.30;99.90;;;;;;5072487;28;20295;-79
2021/12/04 10:38:07;;;;;;;14.80;9.90;;;3.30;99.90;;;;;;5073169;28;20290;-79
2021/12/04 10:40:42;;;;;;;16.50;9.53;;;3.30;99.90;;;;;;5068202;28;20208;-79
2021/12/04 10:43:13;;;;;;;15.67;9.70;;;3.30;99.90;;;;;;5071804;28;20221;-79
2021/12/04 10:45:43;;;;;;;11.13;8.83;;;3.20;99.90;;;;;;5073375;28;20242;-79
2021/12/04 10:48:14;;;;;;;13.53;9.10;;;3.10;99.90;;;;;;5072268;28;20203;-79
2021/12/04 10:51:05;;;;;;;14.53;9.57;;;3.10;99.90;;;;;;5072534;28;20175;-79
2021/12/04 10:53:45;;;;;;;14.23;9.07;;;3.20;99.90;;;;;;5073249;28;20214;-78
2021/12/04 10:56:24;;;;;;;14.80;9.57;;;3.10;99.90;;;;;;5072608;28;20210;-79
2021/12/04 11:01:34;;;;;;;13.73;9.03;;;3.10;99.90;;;;;;5073007;28;20230;-78
2021/12/04 11:04:13;;;;;;;11.83;8.57;;;3.10;99.90;;;;;;5059524;28;20211;-78
2021/12/04 11:07:03;;;;;;;12.57;8.80;;;3.10;99.90;;;;;;5072678;28;20225;-79
2021/12/04 11:21:09;;;;;;;11.00;8.57;;;3.40;99.90;;;;;;5072122;28;20254;-79
2021/12/04 11:24:01;;;;;;;14.97;9.67;;;3.40;99.90;;;;;;5071670;28;20589;-78
2021/12/04 11:26:43;;;;;;;13.77;9.30;;;3.30;99.90;;;;;;5070532;28;20307;-79
2021/12/04 11:37:48;;;;;;;16.53;10.73;;;3.20;99.90;;;;;;5073274;28;20680;-78
2021/12/04 11:43:10;;;;;;;15.50;11.23;;;3.10;99.90;;;;;;5063034;28;20240;-79
2021/12/04 11:48:29;;;;;;;13.63;10.23;;;3.20;99.90;;;;;;5073053;28;20725;-79
2021/12/04 11:50:55;;;;;;;17.63;11.67;;;3.30;99.90;;;;;;5074369;28;20232;-79
2021/12/04 11:53:20;;;;;;;13.20;9.47;;;3.30;99.90;;;;;;5071798;28;20621;-78
2021/12/04 11:55:48;;;;;;;16.03;10.47;;;3.30;99.90;;;;;;5072845;28;20234;-79
2021/12/04 11:58:21;;;;;;;15.90;10.93;;;3.30;99.90;;;;;;5072780;28;20215;-79
2021/12/04 12:00:49;;;;;;;16.53;10.60;;;3.30;99.90;;;;;;5056016;28;20697;-79
2021/12/04 12:03:21;;;;;;;16.13;10.97;;;3.40;99.90;;;;;;5073261;28;20190;-77
2021/12/04 12:06:09;;;;;;;14.43;10.47;;;3.30;99.90;;;;;;5072712;28;20588;-79
2021/12/04 12:08:37;;;;;;;17.00;11.33;;;3.40;99.90;;;;;;5071762;28;20745;-78
2021/12/04 12:11:07;;;;;;;17.30;11.20;;;3.50;99.90;;;;;;5067267;28;20226;-79
2021/12/04 12:13:57;;;;;;;15.60;11.27;;;3.50;99.90;;;;;;5073000;28;20232;-79
2021/12/04 12:16:26;;;;;;;16.60;10.40;;;3.40;99.90;;;;;;5072736;28;20294;-78
2021/12/04 12:18:57;;;;;;;16.90;11.40;;;3.50;99.90;;;;;;5072509;28;20218;-80
2021/12/04 12:27:37;;;;;;;16.40;10.80;;;3.30;99.90;;;;;;5072471;28;20223;-79
2021/12/04 12:36:03;;;;;;;12.90;9.67;;;3.40;99.90;;;;;;5058497;28;20195;-80
2021/12/04 12:38:52;;;;;;;13.40;10.10;;;3.50;99.90;;;;;;5071570;28;20252;-79
2021/12/04 12:41:53;;;;;;;14.90;10.40;;;3.40;99.90;;;;;;5066250;28;20725;-80
2021/12/04 12:44:28;;;;;;;14.40;9.60;;;3.30;99.90;;;;;;5006260;28;20264;-79
2021/12/04 12:46:56;;;;;;;14.57;9.57;;;3.20;99.90;;;;;;5054234;28;20213;-79
2021/12/04 12:49:37;;;;;;;13.67;9.47;;;3.20;99.90;;;;;;5071146;28;20294;-78
2021/12/04 12:52:10;;;;;;;16.70;10.83;;;3.20;99.90;;;;;;5070021;28;20203;-78
2021/12/04 12:54:59;;;;;;;18.10;10.97;;;3.20;99.90;;;;;;5070068;28;20237;-79
2021/12/04 12:57:32;;;;;;;13.73;9.33;;;3.20;99.90;;;;;;5070432;28;20206;-79
2021/12/04 13:12:16;;;;;;;10.40;7.43;;;3.30;99.90;;;;;;5066817;28;20213;-79
2021/12/04 13:14:42;;;;;;;10.93;7.30;;;3.20;99.90;;;;;;5028021;28;20238;-79
2021/12/04 13:17:10;;;;;;;11.53;7.60;;;3.30;99.90;;;;;;5071259;28;20219;-79
2021/12/04 13:19:41;;;;;;;9.43;6.60;;;3.40;99.90;;;;;;5070882;28;20214;-79
2021/12/04 13:22:15;;;;;;;12.73;7.63;;;3.30;99.90;;;;;;5071717;28;20622;-79
2021/12/04 13:24:42;;;;;;;10.17;7.73;;;3.30;99.90;;;;;;5071215;28;20215;-79
2021/12/04 13:29:46;;;;;;;10.23;6.53;;;3.30;99.90;;;;;;5071658;28;20577;-79
2021/12/04 13:32:14;;;;;;;9.93;7.00;;;3.40;99.90;;;;;;5069625;28;20699;-79
2021/12/04 13:34:40;;;;;;;9.23;6.83;;;3.40;99.90;;;;;;5069378;28;20256;-79
2021/12/04 13:37:07;;;;;;;8.70;6.23;;;3.40;99.90;;;;;;5071324;28;20214;-80
2021/12/04 13:39:35;;;;;;;9.60;7.07;;;3.40;99.90;;;;;;5065247;28;20681;-79
2021/12/04 13:42:02;;;;;;;9.03;6.87;;;3.40;99.90;;;;;;5071940;28;20659;-79
2021/12/04 13:44:29;;;;;;;10.70;7.67;;;3.40;99.90;;;;;;5073884;28;20683;-79
2021/12/04 13:47:00;;;;;;;10.47;7.60;;;3.50;99.90;;;;;;5075606;28;20206;-80
2021/12/04 13:49:39;;;;;;;12.97;8.63;;;3.50;99.90;;;;;;5074831;28;20208;-79
2021/12/04 13:52:10;;;;;;;13.03;8.13;;;3.50;99.90;;;;;;5073849;28;20211;-79
2021/12/04 13:54:56;;;;;;;13.57;9.47;;;3.50;99.90;;;;;;5073431;28;20203;-79
2021/12/04 13:57:21;;;;;;;13.43;9.20;;;3.50;99.90;;;;;;5075124;28;20217;-79
2021/12/04 13:59:47;;;;;;;15.87;10.07;;;3.40;99.90;;;;;;5074615;28;20381;-79
2021/12/04 14:02:24;;;;;;;14.57;10.50;;;3.50;99.90;;;;;;5075310;28;20199;-79
2021/12/04 14:05:06;;;;;;;15.83;10.83;;;3.50;99.90;;;;;;5059815;28;20294;-79
2021/12/04 14:07:33;;;;;;;14.53;10.37;;;3.40;99.90;;;;;;5073457;28;20745;-79
2021/12/04 14:10:09;;;;;;;14.57;10.33;;;3.50;99.90;;;;;;5068022;28;20291;-79
2021/12/04 14:12:35;;;;;;;17.10;11.37;;;3.50;99.90;;;;;;5075537;28;20208;-79
2021/12/04 14:15:08;;;;;;;19.50;12.43;;;3.40;99.90;;;;;;5074152;28;20192;-79
2021/12/04 14:17:33;;;;;;;17.27;11.97;;;3.40;99.90;;;;;;5074665;28;20240;-80
2021/12/04 14:19:59;;;;;;;19.37;12.83;;;3.30;99.90;;;;;;5074092;28;20238;-79
2021/12/04 14:22:24;;;;;;;18.07;11.73;;;3.30;99.90;;;;;;5074539;28;20211;-79
2021/12/04 14:24:56;;;;;;;18.03;11.53;;;3.20;99.90;;;;;;5073012;28;20241;-79
2021/12/04 14:27:31;;;;;;;18.70;12.17;;;3.20;99.90;;;;;;5073082;28;20226;-78
2021/12/04 14:30:00;;;;;;;18.47;12.10;;;3.20;99.90;;;;;;5074794;28;20192;-79
2021/12/04 14:32:31;;;;;;;19.17;13.40;;;3.10;99.90;;;;;;5074482;28;20215;-78
2021/12/04 14:35:03;;;;;;;20.37;12.87;;;3.10;99.90;;;;;;5074470;28;20203;-79
2021/12/04 14:37:33;;;;;;;21.07;13.67;;;3.20;99.90;;;;;;5074452;28;20210;-79
2021/12/04 14:39:59;;;;;;;22.53;13.60;;;3.20;99.90;;;;;;5067222;28;20203;-79
2021/12/04 14:42:29;;;;;;;22.83;13.17;;;3.10;99.90;;;;;;5073908;28;20182;-79
2021/12/04 14:45:03;;;;;;;21.87;14.27;;;3.20;99.90;;;;;;5078325;28;20201;-80
2021/12/04 14:47:33;;;;;;;20.97;13.50;;;3.20;99.90;;;;;;5089787;28;20223;-79
2021/12/04 14:50:00;;;;;;;25.93;15.10;;;3.10;99.90;;;;;;5080696;28;20240;-78
2021/12/04 14:52:29;;;;;;;27.17;15.97;;;3.10;99.90;;;;;;5073457;28;20577;-78
2021/12/04 14:54:55;;;;;;;25.90;16.43;;;3.00;99.90;;;;;;5073341;28;20202;-78
2021/12/04 14:57:24;;;;;;;25.73;16.13;;;3.00;99.90;;;;;;5073562;28;20706;-79
2021/12/04 15:00:05;;;;;;;28.43;17.23;;;3.00;99.90;;;;;;5058125;28;20259;-79
2021/12/04 15:02:31;;;;;;;29.57;17.50;;;2.90;99.90;;;;;;5073220;28;20203;-80
2021/12/04 15:04:56;;;;;;;27.47;17.23;;;2.90;99.90;;;;;;5073617;28;20241;-80
2021/12/04 15:07:26;;;;;;;28.50;18.03;;;2.90;99.90;;;;;;5073248;28;20217;-79
2021/12/04 15:09:52;;;;;;;32.90;18.40;;;2.90;99.90;;;;;;5067475;28;20228;-79
2021/12/04 15:12:44;;;;;;;31.70;17.73;;;3.00;99.90;;;;;;5073371;28;20265;-79
2021/12/04 15:15:11;;;;;;;28.43;17.57;;;3.00;99.90;;;;;;5059434;28;20240;-79
2021/12/04 15:17:39;;;;;;;30.83;19.07;;;3.00;99.90;;;;;;5072603;28;20830;-79
2021/12/04 15:20:12;;;;;;;31.23;18.03;;;3.00;99.90;;;;;;5073006;28;20218;-79
2021/12/04 15:22:43;;;;;;;30.67;18.80;;;3.00;99.90;;;;;;5071655;28;20701;-79
2021/12/04 15:25:17;;;;;;;31.67;19.57;;;2.90;99.90;;;;;;5073171;28;20276;-79
2021/12/04 15:27:43;;;;;;;30.40;18.57;;;2.90;99.90;;;;;;5072603;28;20219;-78
2021/12/04 15:30:14;;;;;;;31.80;18.23;;;2.90;99.90;;;;;;5071221;28;20209;-79
2021/12/04 15:32:41;;;;;;;27.90;18.07;;;2.90;99.90;;;;;;5074198;28;20172;-80